sensor_id;sensor_type;location;lat;lon;timestamp;pressure;altitude;pressure_sealevel;temperature;humidity
42761;BME280;31672;47.638;19.026;2023-12-20T00:02:13;100301.97;;;-3.08;100.00
42761;BME280;31672;47.638;19.026;2023-12-20T00:07:17;100293.00;;;-3.03;100.00
42761;BME280;31672;47.638;19.026;2023-12-20T00:12:20;100285.31;;;-3.04;100.00
42761;BME280;31672;47.638;19.026;2023-12-20T00:17:23;100275.66;;;-3.02;100.00
42761;BME280;31672;47.638;19.026;2023-12-20T00:22:26;100268.53;;;-2.99;100.00
42761;BME280;31672;47.638;19.026;2023-12-20T00:27:30;100253.00;;;-3.00;100.00
42761;BME280;31672;47.638;19.026;2023-12-20T00:32:34;100243.22;;;-2.95;100.00
42761;BME280;31672;47.638;19.026;2023-12-20T00:37:38;100241.28;;;-2.91;100.00
42761;BME280;31672;47.638;19.026;2023-12-20T00:42:42;100229.97;;;-2.90;100.00
42761;BME280;31672;47.638;19.026;2023-12-20T00:47:45;100224.06;;;-2.94;100.00
42761;BME280;31672;47.638;19.026;2023-12-20T00:52:49;100214.53;;;-2.93;100.00
42761;BME280;31672;47.638;19.026;2023-12-20T00:57:52;100218.50;;;-2.86;100.00
42761;BME280;31672;47.638;19.026;2023-12-20T01:02:56;100208.69;;;-2.81;100.00
42761;BME280;31672;47.638;19.026;2023-12-20T01:08:00;100204.97;;;-2.77;100.00
42761;BME280;31672;47.638;19.026;2023-12-20T01:13:06;100198.00;;;-2.77;100.00
42761;BME280;31672;47.638;19.026;2023-12-20T01:18:09;100195.34;;;-2.75;100.00
42761;BME280;31672;47.638;19.026;2023-12-20T01:23:13;100176.09;;;-2.88;100.00
42761;BME280;31672;47.638;19.026;2023-12-20T01:28:16;100182.34;;;-2.75;100.00
42761;BME280;31672;47.638;19.026;2023-12-20T01:33:20;100175.72;;;-2.81;100.00
42761;BME280;31672;47.638;19.026;2023-12-20T01:38:23;100161.69;;;-2.78;100.00
42761;BME280;31672;47.638;19.026;2023-12-20T01:43:27;100143.72;;;-2.83;100.00
42761;BME280;31672;47.638;19.026;2023-12-20T01:48:35;100140.88;;;-2.78;100.00
42761;BME280;31672;47.638;19.026;2023-12-20T01:53:39;100131.31;;;-2.78;100.00
42761;BME280;31672;47.638;19.026;2023-12-20T01:58:45;100122.69;;;-2.78;100.00
42761;BME280;31672;47.638;19.026;2023-12-20T02:03:50;100108.09;;;-2.81;100.00
42761;BME280;31672;47.638;19.026;2023-12-20T02:08:54;100098.09;;;-2.88;100.00
42761;BME280;31672;47.638;19.026;2023-12-20T02:13:58;100090.38;;;-2.90;100.00
42761;BME280;31672;47.638;19.026;2023-12-20T02:19:01;100070.94;;;-2.99;100.00
42761;BME280;31672;47.638;19.026;2023-12-20T02:24:05;100075.22;;;-2.98;100.00
42761;BME280;31672;47.638;19.026;2023-12-20T02:29:09;100058.34;;;-3.06;100.00
42761;BME280;31672;47.638;19.026;2023-12-20T02:34:12;100048.81;;;-3.06;100.00
42761;BME280;31672;47.638;19.026;2023-12-20T02:39:16;100041.75;;;-3.04;100.00
42761;BME280;31672;47.638;19.026;2023-12-20T02:44:19;100038.22;;;-3.03;100.00
42761;BME280;31672;47.638;19.026;2023-12-20T02:49:22;100035.53;;;-3.01;100.00
42761;BME280;31672;47.638;19.026;2023-12-20T02:54:25;100037.41;;;-3.03;100.00
42761;BME280;31672;47.638;19.026;2023-12-20T02:59:29;100038.41;;;-3.06;100.00
42761;BME280;31672;47.638;19.026;2023-12-20T03:04:32;100040.25;;;-3.08;100.00
42761;BME280;31672;47.638;19.026;2023-12-20T03:09:36;100047.47;;;-3.13;100.00
42761;BME280;31672;47.638;19.026;2023-12-20T03:14:59;100037.41;;;-3.19;100.00
42761;BME280;31672;47.638;19.026;2023-12-20T03:20:03;100045.53;;;-3.25;100.00
42761;BME280;31672;47.638;19.026;2023-12-20T03:25:07;100039.75;;;-3.30;100.00
42761;BME280;31672;47.638;19.026;2023-12-20T03:30:10;100028.59;;;-3.32;100.00
42761;BME280;31672;47.638;19.026;2023-12-20T03:35:14;100019.13;;;-3.33;100.00
42761;BME280;31672;47.638;19.026;2023-12-20T03:40:17;100023.31;;;-3.31;100.00
42761;BME280;31672;47.638;19.026;2023-12-20T03:45:21;100038.00;;;-3.30;100.00
42761;BME280;31672;47.638;19.026;2023-12-20T03:50:25;100042.09;;;-3.26;100.00
42761;BME280;31672;47.638;19.026;2023-12-20T03:55:28;100034.16;;;-3.22;100.00
42761;BME280;31672;47.638;19.026;2023-12-20T04:00:32;100037.59;;;-3.22;100.00
42761;BME280;31672;47.638;19.026;2023-12-20T04:05:35;100038.56;;;-3.25;100.00
42761;BME280;31672;47.638;19.026;2023-12-20T04:10:39;100008.50;;;-3.29;100.00
42761;BME280;31672;47.638;19.026;2023-12-20T04:15:43;100006.06;;;-3.32;100.00
42761;BME280;31672;47.638;19.026;2023-12-20T04:20:46;100006.75;;;-3.28;100.00
42761;BME280;31672;47.638;19.026;2023-12-20T04:25:49;99995.31;;;-3.26;100.00
42761;BME280;31672;47.638;19.026;2023-12-20T04:30:53;99985.75;;;-3.25;100.00
42761;BME280;31672;47.638;19.026;2023-12-20T04:35:56;99971.09;;;-3.26;100.00
42761;BME280;31672;47.638;19.026;2023-12-20T04:41:01;99962.56;;;-3.28;100.00
42761;BME280;31672;47.638;19.026;2023-12-20T04:46:04;99945.81;;;-3.38;100.00
42761;BME280;31672;47.638;19.026;2023-12-20T04:51:07;99939.19;;;-3.44;100.00
42761;BME280;31672;47.638;19.026;2023-12-20T04:56:10;99944.88;;;-3.37;100.00
42761;BME280;31672;47.638;19.026;2023-12-20T05:01:14;99927.81;;;-3.41;100.00
42761;BME280;31672;47.638;19.026;2023-12-20T05:06:17;99917.06;;;-3.35;100.00
42761;BME280;31672;47.638;19.026;2023-12-20T05:11:21;99920.56;;;-3.36;100.00
42761;BME280;31672;47.638;19.026;2023-12-20T05:16:24;99920.75;;;-3.39;100.00
42761;BME280;31672;47.638;19.026;2023-12-20T05:21:27;99907.38;;;-3.47;100.00
42761;BME280;31672;47.638;19.026;2023-12-20T05:26:31;99904.69;;;-3.62;100.00
42761;BME280;31672;47.638;19.026;2023-12-20T05:31:34;99907.47;;;-3.65;100.00
42761;BME280;31672;47.638;19.026;2023-12-20T05:36:37;99896.31;;;-3.67;100.00
42761;BME280;31672;47.638;19.026;2023-12-20T05:41:42;99894.63;;;-3.68;100.00
42761;BME280;31672;47.638;19.026;2023-12-20T05:46:46;99871.84;;;-3.79;100.00
42761;BME280;31672;47.638;19.026;2023-12-20T05:51:49;99869.25;;;-3.79;100.00
42761;BME280;31672;47.638;19.026;2023-12-20T05:56:54;99878.06;;;-3.81;100.00
42761;BME280;31672;47.638;19.026;2023-12-20T06:01:57;99890.56;;;-3.88;100.00
42761;BME280;31672;47.638;19.026;2023-12-20T06:07:00;99886.53;;;-3.93;100.00
42761;BME280;31672;47.638;19.026;2023-12-20T06:12:04;99878.88;;;-3.96;100.00
42761;BME280;31672;47.638;19.026;2023-12-20T06:17:08;99881.91;;;-4.04;100.00
42761;BME280;31672;47.638;19.026;2023-12-20T06:22:11;99898.91;;;-3.98;100.00
42761;BME280;31672;47.638;19.026;2023-12-20T06:27:14;99889.94;;;-4.09;100.00
42761;BME280;31672;47.638;19.026;2023-12-20T06:32:18;99906.19;;;-4.05;100.00
42761;BME280;31672;47.638;19.026;2023-12-20T06:37:22;99925.09;;;-4.03;100.00
42761;BME280;31672;47.638;19.026;2023-12-20T06:42:29;99939.84;;;-4.04;100.00
42761;BME280;31672;47.638;19.026;2023-12-20T06:47:37;99949.16;;;-3.99;100.00
42761;BME280;31672;47.638;19.026;2023-12-20T06:52:41;99940.28;;;-3.95;100.00
42761;BME280;31672;47.638;19.026;2023-12-20T06:57:44;99942.03;;;-3.96;100.00
42761;BME280;31672;47.638;19.026;2023-12-20T07:02:48;99940.53;;;-4.00;100.00
42761;BME280;31672;47.638;19.026;2023-12-20T07:07:52;99936.31;;;-4.03;100.00
42761;BME280;31672;47.638;19.026;2023-12-20T07:12:55;99926.72;;;-4.00;100.00
42761;BME280;31672;47.638;19.026;2023-12-20T07:17:58;99934.50;;;-4.00;100.00
42761;BME280;31672;47.638;19.026;2023-12-20T07:23:03;99925.63;;;-3.96;100.00
42761;BME280;31672;47.638;19.026;2023-12-20T07:28:07;99933.00;;;-3.89;100.00
42761;BME280;31672;47.638;19.026;2023-12-20T07:33:10;99923.47;;;-3.88;100.00
42761;BME280;31672;47.638;19.026;2023-12-20T07:38:16;99930.00;;;-3.81;100.00
42761;BME280;31672;47.638;19.026;2023-12-20T07:43:20;99922.59;;;-3.73;100.00
42761;BME280;31672;47.638;19.026;2023-12-20T07:48:23;99912.72;;;-3.66;100.00
42761;BME280;31672;47.638;19.026;2023-12-20T07:53:26;99906.53;;;-3.64;100.00
42761;BME280;31672;47.638;19.026;2023-12-20T07:58:30;99913.81;;;-3.55;100.00
42761;BME280;31672;47.638;19.026;2023-12-20T08:03:52;99914.22;;;-3.46;100.00
42761;BME280;31672;47.638;19.026;2023-12-20T08:08:56;99907.91;;;-3.42;100.00
42761;BME280;31672;47.638;19.026;2023-12-20T08:14:09;99905.16;;;-3.39;100.00
42761;BME280;31672;47.638;19.026;2023-12-20T08:19:12;99891.91;;;-3.35;100.00
42761;BME280;31672;47.638;19.026;2023-12-20T08:24:16;99896.09;;;-3.32;100.00
42761;BME280;31672;47.638;19.026;2023-12-20T08:29:20;99896.47;;;-3.24;100.00
42761;BME280;31672;47.638;19.026;2023-12-20T08:34:24;99903.59;;;-3.12;100.00
42761;BME280;31672;47.638;19.026;2023-12-20T08:39:28;99902.47;;;-3.08;100.00
42761;BME280;31672;47.638;19.026;2023-12-20T08:44:33;99905.06;;;-3.08;100.00
42761;BME280;31672;47.638;19.026;2023-12-20T08:49:36;99907.56;;;-3.06;100.00
42761;BME280;31672;47.638;19.026;2023-12-20T08:54:39;99919.59;;;-3.04;100.00
42761;BME280;31672;47.638;19.026;2023-12-20T08:59:45;99916.88;;;-3.02;100.00
42761;BME280;31672;47.638;19.026;2023-12-20T09:04:49;99915.47;;;-3.08;100.00
42761;BME280;31672;47.638;19.026;2023-12-20T09:09:53;99908.72;;;-2.96;100.00
42761;BME280;31672;47.638;19.026;2023-12-20T09:14:56;99914.66;;;-2.94;100.00
42761;BME280;31672;47.638;19.026;2023-12-20T09:19:59;99900.09;;;-2.82;100.00
42761;BME280;31672;47.638;19.026;2023-12-20T09:25:05;99886.69;;;-2.75;100.00
42761;BME280;31672;47.638;19.026;2023-12-20T09:30:09;99872.19;;;-2.64;100.00
42761;BME280;31672;47.638;19.026;2023-12-20T09:35:12;99881.41;;;-2.45;100.00
42761;BME280;31672;47.638;19.026;2023-12-20T09:40:21;99861.41;;;-2.30;100.00
42761;BME280;31672;47.638;19.026;2023-12-20T09:45:25;99863.50;;;-2.22;100.00
42761;BME280;31672;47.638;19.026;2023-12-20T09:50:30;99849.09;;;-2.13;100.00
42761;BME280;31672;47.638;19.026;2023-12-20T09:55:36;99841.91;;;-2.10;100.00
42761;BME280;31672;47.638;19.026;2023-12-20T10:00:40;99835.75;;;-1.95;100.00
42761;BME280;31672;47.638;19.026;2023-12-20T10:05:44;99821.81;;;-1.94;100.00
42761;BME280;31672;47.638;19.026;2023-12-20T10:10:48;99820.06;;;-1.80;100.00
42761;BME280;31672;47.638;19.026;2023-12-20T10:15:52;99816.34;;;-1.76;100.00
42761;BME280;31672;47.638;19.026;2023-12-20T10:20:56;99810.75;;;-1.70;100.00
42761;BME280;31672;47.638;19.026;2023-12-20T10:26:00;99787.84;;;-1.65;100.00
42761;BME280;31672;47.638;19.026;2023-12-20T10:31:03;99769.72;;;-1.67;100.00
42761;BME280;31672;47.638;19.026;2023-12-20T10:36:09;99762.31;;;-1.60;100.00
42761;BME280;31672;47.638;19.026;2023-12-20T10:41:14;99752.97;;;-1.50;100.00
42761;BME280;31672;47.638;19.026;2023-12-20T10:46:20;99738.66;;;-1.44;100.00
42761;BME280;31672;47.638;19.026;2023-12-20T10:51:24;99732.72;;;-1.33;100.00
42761;BME280;31672;47.638;19.026;2023-12-20T10:56:33;99732.44;;;-1.29;100.00
42761;BME280;31672;47.638;19.026;2023-12-20T11:01:38;99741.91;;;-1.15;100.00
42761;BME280;31672;47.638;19.026;2023-12-20T11:07:21;99724.28;;;-0.99;100.00
42761;BME280;31672;47.638;19.026;2023-12-20T11:12:49;99694.03;;;-0.89;100.00
42761;BME280;31672;47.638;19.026;2023-12-20T11:17:56;99681.97;;;-0.78;100.00
42761;BME280;31672;47.638;19.026;2023-12-20T11:23:00;99680.41;;;-0.68;100.00
42761;BME280;31672;47.638;19.026;2023-12-20T11:28:09;99679.63;;;-0.58;100.00
42761;BME280;31672;47.638;19.026;2023-12-20T11:33:14;99666.53;;;-0.45;100.00
42761;BME280;31672;47.638;19.026;2023-12-20T11:38:22;99678.75;;;-0.45;100.00
42761;BME280;31672;47.638;19.026;2023-12-20T11:43:36;99685.63;;;-0.44;100.00
42761;BME280;31672;47.638;19.026;2023-12-20T11:48:40;99667.81;;;-0.27;100.00
42761;BME280;31672;47.638;19.026;2023-12-20T11:53:43;99656.03;;;0.03;100.00
42761;BME280;31672;47.638;19.026;2023-12-20T11:58:47;99663.97;;;0.37;100.00
42761;BME280;31672;47.638;19.026;2023-12-20T12:04:06;99646.78;;;0.68;100.00
42761;BME280;31672;47.638;19.026;2023-12-20T12:09:10;99633.09;;;0.75;100.00
42761;BME280;31672;47.638;19.026;2023-12-20T12:14:13;99640.00;;;0.76;100.00
42761;BME280;31672;47.638;19.026;2023-12-20T12:19:25;99631.31;;;0.76;100.00
42761;BME280;31672;47.638;19.026;2023-12-20T12:24:29;99628.47;;;0.90;100.00
42761;BME280;31672;47.638;19.026;2023-12-20T12:29:34;99625.44;;;1.17;100.00
42761;BME280;31672;47.638;19.026;2023-12-20T12:34:39;99624.78;;;1.79;100.00
42761;BME280;31672;47.638;19.026;2023-12-20T12:39:43;99617.47;;;2.46;100.00
42761;BME280;31672;47.638;19.026;2023-12-20T12:44:47;99618.34;;;2.86;100.00
42761;BME280;31672;47.638;19.026;2023-12-20T12:49:52;99616.81;;;3.24;100.00
42761;BME280;31672;47.638;19.026;2023-12-20T12:54:56;99604.13;;;3.39;100.00
42761;BME280;31672;47.638;19.026;2023-12-20T13:00:00;99613.38;;;3.53;100.00
42761;BME280;31672;47.638;19.026;2023-12-20T13:05:07;99601.09;;;3.63;100.00
42761;BME280;31672;47.638;19.026;2023-12-20T13:10:11;99587.94;;;3.53;100.00
42761;BME280;31672;47.638;19.026;2023-12-20T13:15:14;99600.25;;;3.62;100.00
42761;BME280;31672;47.638;19.026;2023-12-20T13:20:18;99582.97;;;3.60;100.00
42761;BME280;31672;47.638;19.026;2023-12-20T13:25:21;99575.50;;;3.65;100.00
42761;BME280;31672;47.638;19.026;2023-12-20T13:30:25;99580.34;;;3.69;100.00
42761;BME280;31672;47.638;19.026;2023-12-20T13:35:28;99578.69;;;3.78;100.00
42761;BME280;31672;47.638;19.026;2023-12-20T13:40:33;99585.47;;;3.90;100.00
42761;BME280;31672;47.638;19.026;2023-12-20T13:45:37;99562.91;;;3.97;100.00
42761;BME280;31672;47.638;19.026;2023-12-20T13:50:40;99570.59;;;4.18;100.00
42761;BME280;31672;47.638;19.026;2023-12-20T13:55:43;99578.34;;;4.20;100.00
42761;BME280;31672;47.638;19.026;2023-12-20T14:00:47;99565.88;;;4.22;100.00
42761;BME280;31672;47.638;19.026;2023-12-20T14:05:51;99545.81;;;4.21;100.00
42761;BME280;31672;47.638;19.026;2023-12-20T14:10:58;99555.22;;;4.23;100.00
42761;BME280;31672;47.638;19.026;2023-12-20T14:16:01;99546.22;;;4.26;100.00
42761;BME280;31672;47.638;19.026;2023-12-20T14:21:07;99521.91;;;4.14;100.00
42761;BME280;31672;47.638;19.026;2023-12-20T14:26:10;99549.22;;;4.31;100.00
42761;BME280;31672;47.638;19.026;2023-12-20T14:31:17;99573.06;;;4.29;100.00
42761;BME280;31672;47.638;19.026;2023-12-20T14:36:21;99583.16;;;4.34;100.00
42761;BME280;31672;47.638;19.026;2023-12-20T14:41:25;99565.16;;;4.29;100.00
42761;BME280;31672;47.638;19.026;2023-12-20T14:46:29;99595.22;;;4.27;100.00
42761;BME280;31672;47.638;19.026;2023-12-20T14:51:32;99600.47;;;4.27;100.00
42761;BME280;31672;47.638;19.026;2023-12-20T14:56:36;99606.31;;;4.11;100.00
42761;BME280;31672;47.638;19.026;2023-12-20T15:01:44;99598.16;;;3.95;100.00
42761;BME280;31672;47.638;19.026;2023-12-20T15:06:48;99623.78;;;4.02;100.00
42761;BME280;31672;47.638;19.026;2023-12-20T15:11:52;99630.16;;;3.90;100.00
42761;BME280;31672;47.638;19.026;2023-12-20T15:16:55;99657.94;;;3.93;100.00
42761;BME280;31672;47.638;19.026;2023-12-20T15:21:58;99645.91;;;3.81;100.00
42761;BME280;31672;47.638;19.026;2023-12-20T15:27:03;99673.72;;;3.93;100.00
42761;BME280;31672;47.638;19.026;2023-12-20T15:32:06;99680.91;;;3.81;100.00
42761;BME280;31672;47.638;19.026;2023-12-20T15:37:10;99676.47;;;3.82;100.00
42761;BME280;31672;47.638;19.026;2023-12-20T15:42:13;99689.91;;;3.79;100.00
42761;BME280;31672;47.638;19.026;2023-12-20T15:47:17;99677.16;;;3.74;100.00
42761;BME280;31672;47.638;19.026;2023-12-20T15:52:21;99688.53;;;3.84;100.00
42761;BME280;31672;47.638;19.026;2023-12-20T15:57:25;99684.22;;;3.83;100.00
42761;BME280;31672;47.638;19.026;2023-12-20T16:02:31;99693.78;;;3.84;100.00
42761;BME280;31672;47.638;19.026;2023-12-20T16:07:34;99717.28;;;3.86;100.00
42761;BME280;31672;47.638;19.026;2023-12-20T16:12:39;99719.22;;;3.84;100.00
42761;BME280;31672;47.638;19.026;2023-12-20T16:17:43;99724.31;;;3.75;100.00
42761;BME280;31672;47.638;19.026;2023-12-20T16:22:47;99727.06;;;3.64;100.00
42761;BME280;31672;47.638;19.026;2023-12-20T16:27:50;99740.50;;;3.61;100.00
42761;BME280;31672;47.638;19.026;2023-12-20T16:32:54;99741.81;;;3.46;100.00
42761;BME280;31672;47.638;19.026;2023-12-20T16:37:58;99743.03;;;3.32;100.00
42761;BME280;31672;47.638;19.026;2023-12-20T16:43:02;99746.72;;;3.20;100.00
42761;BME280;31672;47.638;19.026;2023-12-20T16:48:06;99740.25;;;3.03;100.00
42761;BME280;31672;47.638;19.026;2023-12-20T16:53:10;99745.22;;;2.97;100.00
42761;BME280;31672;47.638;19.026;2023-12-20T16:58:13;99755.66;;;2.87;100.00
42761;BME280;31672;47.638;19.026;2023-12-20T17:03:17;99741.34;;;2.70;100.00
42761;BME280;31672;47.638;19.026;2023-12-20T17:08:23;99748.34;;;2.69;100.00
42761;BME280;31672;47.638;19.026;2023-12-20T17:13:26;99753.59;;;2.69;100.00
42761;BME280;31672;47.638;19.026;2023-12-20T17:18:34;99762.50;;;2.78;100.00
42761;BME280;31672;47.638;19.026;2023-12-20T17:23:37;99755.59;;;2.77;100.00
42761;BME280;31672;47.638;19.026;2023-12-20T17:28:42;99751.63;;;2.83;100.00
42761;BME280;31672;47.638;19.026;2023-12-20T17:33:46;99762.31;;;2.91;100.00
42761;BME280;31672;47.638;19.026;2023-12-20T17:38:50;99769.59;;;2.87;100.00
42761;BME280;31672;47.638;19.026;2023-12-20T17:43:57;99747.84;;;2.55;100.00
42761;BME280;31672;47.638;19.026;2023-12-20T17:49:00;99765.31;;;2.45;100.00
42761;BME280;31672;47.638;19.026;2023-12-20T17:54:04;99774.41;;;2.40;100.00
42761;BME280;31672;47.638;19.026;2023-12-20T17:59:08;99758.25;;;2.24;100.00
42761;BME280;31672;47.638;19.026;2023-12-20T18:04:12;99789.78;;;2.34;100.00
42761;BME280;31672;47.638;19.026;2023-12-20T18:09:16;99760.72;;;2.05;100.00
42761;BME280;31672;47.638;19.026;2023-12-20T18:14:19;99810.97;;;2.10;100.00
42761;BME280;31672;47.638;19.026;2023-12-20T18:19:23;99800.28;;;1.91;100.00
42761;BME280;31672;47.638;19.026;2023-12-20T18:24:28;99811.50;;;1.93;100.00
42761;BME280;31672;47.638;19.026;2023-12-20T18:29:31;99799.81;;;1.85;100.00
42761;BME280;31672;47.638;19.026;2023-12-20T18:34:34;99809.94;;;1.79;100.00
42761;BME280;31672;47.638;19.026;2023-12-20T18:39:39;99820.06;;;1.72;100.00
42761;BME280;31672;47.638;19.026;2023-12-20T18:44:43;99813.19;;;1.60;100.00
42761;BME280;31672;47.638;19.026;2023-12-20T18:49:49;99809.72;;;1.59;100.00
42761;BME280;31672;47.638;19.026;2023-12-20T18:54:53;99793.78;;;1.40;100.00
42761;BME280;31672;47.638;19.026;2023-12-20T18:59:56;99827.59;;;1.54;100.00
42761;BME280;31672;47.638;19.026;2023-12-20T19:05:05;99828.31;;;1.56;100.00
42761;BME280;31672;47.638;19.026;2023-12-20T19:10:09;99835.22;;;1.57;100.00
42761;BME280;31672;47.638;19.026;2023-12-20T19:15:13;99829.72;;;1.49;100.00
42761;BME280;31672;47.638;19.026;2023-12-20T19:20:17;99836.06;;;1.69;100.00
42761;BME280;31672;47.638;19.026;2023-12-20T19:25:22;99848.28;;;1.80;100.00
42761;BME280;31672;47.638;19.026;2023-12-20T19:30:26;99843.41;;;1.86;100.00
42761;BME280;31672;47.638;19.026;2023-12-20T19:35:32;99843.97;;;2.01;100.00
42761;BME280;31672;47.638;19.026;2023-12-20T19:40:35;99844.31;;;2.19;100.00
42761;BME280;31672;47.638;19.026;2023-12-20T19:45:40;99842.97;;;2.25;100.00
42761;BME280;31672;47.638;19.026;2023-12-20T19:50:43;99850.06;;;2.45;100.00
42761;BME280;31672;47.638;19.026;2023-12-20T19:55:46;99834.41;;;2.55;100.00
42761;BME280;31672;47.638;19.026;2023-12-20T20:00:50;99842.47;;;2.63;100.00
42761;BME280;31672;47.638;19.026;2023-12-20T20:05:58;99837.75;;;2.57;100.00
42761;BME280;31672;47.638;19.026;2023-12-20T20:11:02;99838.19;;;2.62;100.00
42761;BME280;31672;47.638;19.026;2023-12-20T20:16:05;99847.41;;;2.56;100.00
42761;BME280;31672;47.638;19.026;2023-12-20T20:21:12;99838.66;;;2.35;100.00
42761;BME280;31672;47.638;19.026;2023-12-20T20:26:16;99850.97;;;2.23;100.00
42761;BME280;31672;47.638;19.026;2023-12-20T20:31:19;99852.53;;;2.03;100.00
42761;BME280;31672;47.638;19.026;2023-12-20T20:36:22;99847.59;;;1.78;100.00
42761;BME280;31672;47.638;19.026;2023-12-20T20:41:38;99850.81;;;1.59;100.00
42761;BME280;31672;47.638;19.026;2023-12-20T20:46:42;99847.34;;;1.36;100.00
42761;BME280;31672;47.638;19.026;2023-12-20T20:51:50;99842.34;;;1.22;100.00
42761;BME280;31672;47.638;19.026;2023-12-20T20:56:54;99863.13;;;1.12;100.00
42761;BME280;31672;47.638;19.026;2023-12-20T21:01:57;99841.31;;;0.89;100.00
42761;BME280;31672;47.638;19.026;2023-12-20T21:07:01;99849.06;;;0.91;100.00
42761;BME280;31672;47.638;19.026;2023-12-20T21:12:06;99845.25;;;0.95;100.00
42761;BME280;31672;47.638;19.026;2023-12-20T21:17:09;99862.38;;;0.99;100.00
42761;BME280;31672;47.638;19.026;2023-12-20T21:22:13;99862.16;;;1.13;100.00
42761;BME280;31672;47.638;19.026;2023-12-20T21:27:16;99856.25;;;1.22;100.00
42761;BME280;31672;47.638;19.026;2023-12-20T21:32:20;99842.06;;;1.14;100.00
42761;BME280;31672;47.638;19.026;2023-12-20T21:37:25;99844.81;;;1.12;100.00
42761;BME280;31672;47.638;19.026;2023-12-20T21:42:29;99841.47;;;1.10;100.00
42761;BME280;31672;47.638;19.026;2023-12-20T21:47:32;99840.66;;;1.10;100.00
42761;BME280;31672;47.638;19.026;2023-12-20T21:52:35;99833.13;;;0.94;100.00
42761;BME280;31672;47.638;19.026;2023-12-20T21:57:39;99847.78;;;0.96;100.00
42761;BME280;31672;47.638;19.026;2023-12-20T22:02:42;99844.50;;;0.82;100.00
42761;BME280;31672;47.638;19.026;2023-12-20T22:07:46;99841.34;;;0.65;100.00
42761;BME280;31672;47.638;19.026;2023-12-20T22:12:51;99841.47;;;0.64;100.00
42761;BME280;31672;47.638;19.026;2023-12-20T22:17:54;99833.94;;;0.59;100.00
42761;BME280;31672;47.638;19.026;2023-12-20T22:22:57;99841.78;;;0.59;100.00
42761;BME280;31672;47.638;19.026;2023-12-20T22:28:01;99847.97;;;0.58;100.00
42761;BME280;31672;47.638;19.026;2023-12-20T22:33:04;99837.41;;;0.60;100.00
42761;BME280;31672;47.638;19.026;2023-12-20T22:38:08;99828.25;;;0.65;100.00
42761;BME280;31672;47.638;19.026;2023-12-20T22:43:11;99828.81;;;0.82;100.00
42761;BME280;31672;47.638;19.026;2023-12-20T22:48:15;99833.34;;;1.02;100.00
42761;BME280;31672;47.638;19.026;2023-12-20T22:53:18;99835.28;;;1.11;100.00
42761;BME280;31672;47.638;19.026;2023-12-20T22:58:21;99820.06;;;1.16;100.00
42761;BME280;31672;47.638;19.026;2023-12-20T23:03:25;99829.47;;;1.30;100.00
42761;BME280;31672;47.638;19.026;2023-12-20T23:08:29;99831.28;;;1.41;100.00
42761;BME280;31672;47.638;19.026;2023-12-20T23:13:33;99812.69;;;1.44;100.00
42761;BME280;31672;47.638;19.026;2023-12-20T23:18:36;99813.06;;;1.61;100.00
42761;BME280;31672;47.638;19.026;2023-12-20T23:23:40;99789.59;;;1.82;100.00
42761;BME280;31672;47.638;19.026;2023-12-20T23:28:43;99797.63;;;2.02;100.00
42761;BME280;31672;47.638;19.026;2023-12-20T23:33:47;99803.66;;;2.25;100.00
42761;BME280;31672;47.638;19.026;2023-12-20T23:38:50;99792.50;;;2.44;100.00
42761;BME280;31672;47.638;19.026;2023-12-20T23:43:53;99794.81;;;2.58;100.00
42761;BME280;31672;47.638;19.026;2023-12-20T23:48:57;99789.81;;;2.55;100.00
42761;BME280;31672;47.638;19.026;2023-12-20T23:54:01;99790.22;;;2.71;100.00
42761;BME280;31672;47.638;19.026;2023-12-20T23:59:04;99798.66;;;2.75;100.00
